Terminal Aerodrome Forecast
Issued by NWS

Current Version | Previous Version | Text Only | Print | Product List | Glossary On
Versions: 1 2 3 4 5 6 7 8 9 10 11 12 13
000
FTUS41 KPHI 041139
TAFMIV
TAF
KMIV 041139Z 0412/0512 23004KT P6SM BKN150
      TEMPO 0412/0413 5SM BR
     FM041500 24009G18KT P6SM BKN040
      TEMPO 0421/0423 3SM -TSRA OVC030CB
     FM042300 VRB03KT P6SM SCT030 BKN080
     FM050600 25004KT 3SM BR SCT003=

USA.gov is the U.S. government's official web portal to all federal, state and local government web resources and services.